sensor_id;sensor_type;location;lat;lon;timestamp;temperature;humidity
34768;DHT22;21755;43.608;1.236;2022-11-25T00:00:27;7.80;99.90
34768;DHT22;21755;43.608;1.236;2022-11-25T00:02:53;7.80;99.90
34768;DHT22;21755;43.608;1.236;2022-11-25T00:05:19;7.70;99.90
34768;DHT22;21755;43.608;1.236;2022-11-25T00:07:44;7.70;99.90
34768;DHT22;21755;43.608;1.236;2022-11-25T00:10:10;7.70;99.90
34768;DHT22;21755;43.608;1.236;2022-11-25T00:12:36;7.70;99.90
34768;DHT22;21755;43.608;1.236;2022-11-25T00:15:02;7.60;99.90
34768;DHT22;21755;43.608;1.236;2022-11-25T00:17:28;7.60;99.90
34768;DHT22;21755;43.608;1.236;2022-11-25T00:19:54;7.50;99.90
34768;DHT22;21755;43.608;1.236;2022-11-25T00:22:20;7.40;99.90
34768;DHT22;21755;43.608;1.236;2022-11-25T00:24:46;7.50;99.90
34768;DHT22;21755;43.608;1.236;2022-11-25T00:27:12;7.40;99.90
34768;DHT22;21755;43.608;1.236;2022-11-25T00:29:38;7.40;99.90
34768;DHT22;21755;43.608;1.236;2022-11-25T00:32:04;7.40;99.90
34768;DHT22;21755;43.608;1.236;2022-11-25T00:34:29;7.40;99.90
34768;DHT22;21755;43.608;1.236;2022-11-25T00:36:55;7.40;99.90
34768;DHT22;21755;43.608;1.236;2022-11-25T00:39:21;7.30;99.90
34768;DHT22;21755;43.608;1.236;2022-11-25T00:41:49;7.30;99.90
34768;DHT22;21755;43.608;1.236;2022-11-25T00:44:33;7.30;99.90
34768;DHT22;21755;43.608;1.236;2022-11-25T00:49:31;7.20;99.90
34768;DHT22;21755;43.608;1.236;2022-11-25T00:51:57;7.10;99.90
34768;DHT22;21755;43.608;1.236;2022-11-25T00:54:24;7.10;99.90
34768;DHT22;21755;43.608;1.236;2022-11-25T00:56:50;7.10;99.90
34768;DHT22;21755;43.608;1.236;2022-11-25T00:59:16;7.10;99.90
34768;DHT22;21755;43.608;1.236;2022-11-25T01:01:42;7.10;99.90
34768;DHT22;21755;43.608;1.236;2022-11-25T01:04:08;7.00;99.90
34768;DHT22;21755;43.608;1.236;2022-11-25T01:06:35;7.00;99.90
34768;DHT22;21755;43.608;1.236;2022-11-25T01:09:02;7.00;99.90
34768;DHT22;21755;43.608;1.236;2022-11-25T01:11:28;7.00;99.90
34768;DHT22;21755;43.608;1.236;2022-11-25T01:13:55;7.00;99.90
34768;DHT22;21755;43.608;1.236;2022-11-25T01:16:21;6.90;99.90
34768;DHT22;21755;43.608;1.236;2022-11-25T01:18:48;7.00;99.90
34768;DHT22;21755;43.608;1.236;2022-11-25T01:21:21;6.90;99.90
34768;DHT22;21755;43.608;1.236;2022-11-25T01:23:47;6.90;99.90
34768;DHT22;21755;43.608;1.236;2022-11-25T01:26:17;6.90;99.90
34768;DHT22;21755;43.608;1.236;2022-11-25T01:28:43;6.90;99.90
34768;DHT22;21755;43.608;1.236;2022-11-25T01:31:15;6.80;99.90
34768;DHT22;21755;43.608;1.236;2022-11-25T01:33:41;6.80;99.90
34768;DHT22;21755;43.608;1.236;2022-11-25T01:36:11;6.80;99.90
34768;DHT22;21755;43.608;1.236;2022-11-25T01:38:38;6.80;99.90
34768;DHT22;21755;43.608;1.236;2022-11-25T01:41:06;6.70;99.90
34768;DHT22;21755;43.608;1.236;2022-11-25T01:43:32;6.70;99.90
34768;DHT22;21755;43.608;1.236;2022-11-25T01:46:25;6.70;99.90
34768;DHT22;21755;43.608;1.236;2022-11-25T01:48:59;6.70;99.90
34768;DHT22;21755;43.608;1.236;2022-11-25T01:54:08;6.60;99.90
34768;DHT22;21755;43.608;1.236;2022-11-25T01:56:41;6.60;99.90
34768;DHT22;21755;43.608;1.236;2022-11-25T01:59:09;6.60;99.90
34768;DHT22;21755;43.608;1.236;2022-11-25T02:01:35;6.60;99.90
34768;DHT22;21755;43.608;1.236;2022-11-25T02:04:01;6.50;99.90
34768;DHT22;21755;43.608;1.236;2022-11-25T02:06:31;6.60;99.90
34768;DHT22;21755;43.608;1.236;2022-11-25T02:09:07;6.50;99.90
34768;DHT22;21755;43.608;1.236;2022-11-25T02:11:35;6.50;99.90
34768;DHT22;21755;43.608;1.236;2022-11-25T02:14:03;6.50;99.90
34768;DHT22;21755;43.608;1.236;2022-11-25T02:16:30;6.50;99.90
34768;DHT22;21755;43.608;1.236;2022-11-25T02:18:56;6.40;99.90
34768;DHT22;21755;43.608;1.236;2022-11-25T02:21:30;6.40;99.90
34768;DHT22;21755;43.608;1.236;2022-11-25T02:24:20;6.40;99.90
34768;DHT22;21755;43.608;1.236;2022-11-25T02:26:47;6.30;99.90
34768;DHT22;21755;43.608;1.236;2022-11-25T02:29:13;6.30;99.90
34768;DHT22;21755;43.608;1.236;2022-11-25T02:31:39;6.30;99.90
34768;DHT22;21755;43.608;1.236;2022-11-25T02:34:05;6.30;99.90
34768;DHT22;21755;43.608;1.236;2022-11-25T02:36:31;6.30;99.90
34768;DHT22;21755;43.608;1.236;2022-11-25T02:38:58;6.30;99.90
34768;DHT22;21755;43.608;1.236;2022-11-25T02:41:31;6.20;99.90
34768;DHT22;21755;43.608;1.236;2022-11-25T02:43:58;6.20;99.90
34768;DHT22;21755;43.608;1.236;2022-11-25T02:46:25;6.20;99.90
34768;DHT22;21755;43.608;1.236;2022-11-25T02:48:53;6.20;99.90
34768;DHT22;21755;43.608;1.236;2022-11-25T02:51:21;6.20;99.90
34768;DHT22;21755;43.608;1.236;2022-11-25T02:53:48;6.20;99.90
34768;DHT22;21755;43.608;1.236;2022-11-25T02:56:15;6.10;99.90
34768;DHT22;21755;43.608;1.236;2022-11-25T02:58:41;6.10;99.90
34768;DHT22;21755;43.608;1.236;2022-11-25T03:01:07;6.10;99.90
34768;DHT22;21755;43.608;1.236;2022-11-25T03:03:34;6.10;99.90
34768;DHT22;21755;43.608;1.236;2022-11-25T03:06:00;6.10;99.90
34768;DHT22;21755;43.608;1.236;2022-11-25T03:08:26;6.10;99.90
34768;DHT22;21755;43.608;1.236;2022-11-25T03:10:52;6.10;99.90
34768;DHT22;21755;43.608;1.236;2022-11-25T03:13:18;6.10;99.90
34768;DHT22;21755;43.608;1.236;2022-11-25T03:15:44;6.10;99.90
34768;DHT22;21755;43.608;1.236;2022-11-25T03:18:10;6.00;99.90
34768;DHT22;21755;43.608;1.236;2022-11-25T03:20:36;6.10;99.90
34768;DHT22;21755;43.608;1.236;2022-11-25T03:23:03;6.10;99.90
34768;DHT22;21755;43.608;1.236;2022-11-25T03:25:29;6.10;99.90
34768;DHT22;21755;43.608;1.236;2022-11-25T03:27:55;6.10;99.90
34768;DHT22;21755;43.608;1.236;2022-11-25T03:30:24;6.10;99.90
34768;DHT22;21755;43.608;1.236;2022-11-25T03:32:50;6.20;99.90
34768;DHT22;21755;43.608;1.236;2022-11-25T03:35:17;6.20;99.90
34768;DHT22;21755;43.608;1.236;2022-11-25T03:37:43;6.30;99.90
34768;DHT22;21755;43.608;1.236;2022-11-25T03:40:11;6.30;99.90
34768;DHT22;21755;43.608;1.236;2022-11-25T03:42:37;6.30;99.90
34768;DHT22;21755;43.608;1.236;2022-11-25T03:45:04;6.30;99.90
34768;DHT22;21755;43.608;1.236;2022-11-25T03:47:30;6.30;99.90
34768;DHT22;21755;43.608;1.236;2022-11-25T03:49:56;6.30;99.90
34768;DHT22;21755;43.608;1.236;2022-11-25T03:52:22;6.30;99.90
34768;DHT22;21755;43.608;1.236;2022-11-25T03:54:48;6.30;99.90
34768;DHT22;21755;43.608;1.236;2022-11-25T03:57:14;6.30;99.90
34768;DHT22;21755;43.608;1.236;2022-11-25T03:59:40;6.30;99.90
34768;DHT22;21755;43.608;1.236;2022-11-25T04:02:06;6.30;99.90
34768;DHT22;21755;43.608;1.236;2022-11-25T04:04:32;6.30;99.90
34768;DHT22;21755;43.608;1.236;2022-11-25T04:06:58;6.30;99.90
34768;DHT22;21755;43.608;1.236;2022-11-25T04:09:24;6.30;99.90
34768;DHT22;21755;43.608;1.236;2022-11-25T04:11:50;6.30;99.90
34768;DHT22;21755;43.608;1.236;2022-11-25T04:14:35;6.30;99.90
34768;DHT22;21755;43.608;1.236;2022-11-25T04:17:01;6.30;99.90
34768;DHT22;21755;43.608;1.236;2022-11-25T04:19:26;6.20;99.90
34768;DHT22;21755;43.608;1.236;2022-11-25T04:21:52;6.20;99.90
34768;DHT22;21755;43.608;1.236;2022-11-25T04:24:19;6.20;99.90
34768;DHT22;21755;43.608;1.236;2022-11-25T04:26:46;6.20;99.90
34768;DHT22;21755;43.608;1.236;2022-11-25T04:29:11;6.20;99.90
34768;DHT22;21755;43.608;1.236;2022-11-25T04:31:37;6.20;99.90
34768;DHT22;21755;43.608;1.236;2022-11-25T04:34:04;6.20;99.90
34768;DHT22;21755;43.608;1.236;2022-11-25T04:36:30;6.20;99.90
34768;DHT22;21755;43.608;1.236;2022-11-25T04:38:56;6.20;99.90
34768;DHT22;21755;43.608;1.236;2022-11-25T04:41:22;6.30;99.90
34768;DHT22;21755;43.608;1.236;2022-11-25T04:43:48;6.20;99.90
34768;DHT22;21755;43.608;1.236;2022-11-25T04:46:19;6.20;99.90
34768;DHT22;21755;43.608;1.236;2022-11-25T04:48:46;6.10;99.90
34768;DHT22;21755;43.608;1.236;2022-11-25T04:51:12;6.20;99.90
34768;DHT22;21755;43.608;1.236;2022-11-25T04:53:38;6.20;99.90
34768;DHT22;21755;43.608;1.236;2022-11-25T04:56:04;6.20;99.90
34768;DHT22;21755;43.608;1.236;2022-11-25T04:58:30;6.20;99.90
34768;DHT22;21755;43.608;1.236;2022-11-25T05:01:28;6.20;99.90
34768;DHT22;21755;43.608;1.236;2022-11-25T05:03:54;6.20;99.90
34768;DHT22;21755;43.608;1.236;2022-11-25T05:06:20;6.20;99.90
34768;DHT22;21755;43.608;1.236;2022-11-25T05:08:48;6.20;99.90
34768;DHT22;21755;43.608;1.236;2022-11-25T05:11:14;6.20;99.90
34768;DHT22;21755;43.608;1.236;2022-11-25T05:13:40;6.20;99.90
34768;DHT22;21755;43.608;1.236;2022-11-25T05:16:06;6.20;99.90
34768;DHT22;21755;43.608;1.236;2022-11-25T05:18:32;6.20;99.90
34768;DHT22;21755;43.608;1.236;2022-11-25T05:21:02;6.20;99.90
34768;DHT22;21755;43.608;1.236;2022-11-25T05:23:28;6.20;99.90
34768;DHT22;21755;43.608;1.236;2022-11-25T05:26:04;6.10;99.90
34768;DHT22;21755;43.608;1.236;2022-11-25T05:28:30;6.10;99.90
34768;DHT22;21755;43.608;1.236;2022-11-25T05:30:56;6.10;99.90
34768;DHT22;21755;43.608;1.236;2022-11-25T05:33:23;6.10;99.90
34768;DHT22;21755;43.608;1.236;2022-11-25T05:35:57;6.10;99.90
34768;DHT22;21755;43.608;1.236;2022-11-25T05:38:23;6.00;99.90
34768;DHT22;21755;43.608;1.236;2022-11-25T05:40:49;6.00;99.90
34768;DHT22;21755;43.608;1.236;2022-11-25T05:43:15;5.90;99.90
34768;DHT22;21755;43.608;1.236;2022-11-25T05:45:41;5.90;99.90
34768;DHT22;21755;43.608;1.236;2022-11-25T05:48:07;5.90;99.90
34768;DHT22;21755;43.608;1.236;2022-11-25T05:50:33;5.90;99.90
34768;DHT22;21755;43.608;1.236;2022-11-25T05:52:59;5.90;99.90
34768;DHT22;21755;43.608;1.236;2022-11-25T05:55:25;5.90;99.90
34768;DHT22;21755;43.608;1.236;2022-11-25T05:57:51;5.90;99.90
34768;DHT22;21755;43.608;1.236;2022-11-25T06:00:17;6.00;99.90
34768;DHT22;21755;43.608;1.236;2022-11-25T06:02:43;6.00;99.90
34768;DHT22;21755;43.608;1.236;2022-11-25T06:05:08;6.00;99.90
34768;DHT22;21755;43.608;1.236;2022-11-25T06:07:34;6.00;99.90
34768;DHT22;21755;43.608;1.236;2022-11-25T06:10:00;6.00;99.90
34768;DHT22;21755;43.608;1.236;2022-11-25T06:12:26;6.10;99.90
34768;DHT22;21755;43.608;1.236;2022-11-25T06:14:52;6.10;99.90
34768;DHT22;21755;43.608;1.236;2022-11-25T06:17:18;6.10;99.90
34768;DHT22;21755;43.608;1.236;2022-11-25T06:19:45;6.10;99.90
34768;DHT22;21755;43.608;1.236;2022-11-25T06:22:11;6.10;99.90
34768;DHT22;21755;43.608;1.236;2022-11-25T06:24:37;6.20;99.90
34768;DHT22;21755;43.608;1.236;2022-11-25T06:27:02;6.10;99.90
34768;DHT22;21755;43.608;1.236;2022-11-25T06:29:28;6.20;99.90
34768;DHT22;21755;43.608;1.236;2022-11-25T06:31:54;6.20;99.90
34768;DHT22;21755;43.608;1.236;2022-11-25T06:34:21;6.30;99.90
34768;DHT22;21755;43.608;1.236;2022-11-25T06:36:48;6.40;99.90
34768;DHT22;21755;43.608;1.236;2022-11-25T06:39:14;6.40;99.90
34768;DHT22;21755;43.608;1.236;2022-11-25T06:41:40;6.40;99.90
34768;DHT22;21755;43.608;1.236;2022-11-25T06:44:06;6.50;99.90
34768;DHT22;21755;43.608;1.236;2022-11-25T06:46:32;6.50;99.90
34768;DHT22;21755;43.608;1.236;2022-11-25T06:48:59;7.10;99.90
34768;DHT22;21755;43.608;1.236;2022-11-25T06:51:25;8.10;99.90
34768;DHT22;21755;43.608;1.236;2022-11-25T06:53:51;8.60;99.90
34768;DHT22;21755;43.608;1.236;2022-11-25T06:56:20;8.80;99.90
34768;DHT22;21755;43.608;1.236;2022-11-25T06:58:47;9.00;99.90
34768;DHT22;21755;43.608;1.236;2022-11-25T07:01:19;9.10;99.90
34768;DHT22;21755;43.608;1.236;2022-11-25T07:03:47;9.10;99.90
34768;DHT22;21755;43.608;1.236;2022-11-25T07:06:15;9.10;99.90
34768;DHT22;21755;43.608;1.236;2022-11-25T07:08:41;9.20;99.90
34768;DHT22;21755;43.608;1.236;2022-11-25T07:13:38;9.10;99.90
34768;DHT22;21755;43.608;1.236;2022-11-25T07:16:05;9.10;99.90
34768;DHT22;21755;43.608;1.236;2022-11-25T07:18:33;9.00;99.90
34768;DHT22;21755;43.608;1.236;2022-11-25T07:21:04;9.10;99.90
34768;DHT22;21755;43.608;1.236;2022-11-25T07:23:32;9.10;99.90
34768;DHT22;21755;43.608;1.236;2022-11-25T07:26:07;9.10;99.90
34768;DHT22;21755;43.608;1.236;2022-11-25T07:28:34;9.20;99.90
34768;DHT22;21755;43.608;1.236;2022-11-25T07:33:51;9.20;99.90
34768;DHT22;21755;43.608;1.236;2022-11-25T07:36:17;9.20;99.90
34768;DHT22;21755;43.608;1.236;2022-11-25T07:38:43;9.20;99.90
34768;DHT22;21755;43.608;1.236;2022-11-25T07:41:21;9.20;99.90
34768;DHT22;21755;43.608;1.236;2022-11-25T07:43:49;9.20;99.90
34768;DHT22;21755;43.608;1.236;2022-11-25T07:46:19;9.20;99.90
34768;DHT22;21755;43.608;1.236;2022-11-25T07:48:45;9.30;99.90
34768;DHT22;21755;43.608;1.236;2022-11-25T07:51:19;9.30;99.90
34768;DHT22;21755;43.608;1.236;2022-11-25T07:53:46;9.30;99.90
34768;DHT22;21755;43.608;1.236;2022-11-25T07:56:13;9.30;99.90
34768;DHT22;21755;43.608;1.236;2022-11-25T07:58:40;9.30;99.90
34768;DHT22;21755;43.608;1.236;2022-11-25T08:01:07;9.30;99.90
34768;DHT22;21755;43.608;1.236;2022-11-25T08:03:35;9.30;99.90
34768;DHT22;21755;43.608;1.236;2022-11-25T08:06:06;9.30;99.90
34768;DHT22;21755;43.608;1.236;2022-11-25T08:08:33;9.30;99.90
34768;DHT22;21755;43.608;1.236;2022-11-25T08:10:59;9.30;99.90
34768;DHT22;21755;43.608;1.236;2022-11-25T08:13:25;9.30;99.90
34768;DHT22;21755;43.608;1.236;2022-11-25T08:15:51;9.30;99.90
34768;DHT22;21755;43.608;1.236;2022-11-25T08:18:17;9.40;99.90
34768;DHT22;21755;43.608;1.236;2022-11-25T08:20:43;9.40;99.90
34768;DHT22;21755;43.608;1.236;2022-11-25T08:23:10;9.40;99.90
34768;DHT22;21755;43.608;1.236;2022-11-25T08:25:39;9.40;99.90
34768;DHT22;21755;43.608;1.236;2022-11-25T08:28:06;9.40;99.90
34768;DHT22;21755;43.608;1.236;2022-11-25T08:30:32;9.50;99.90
34768;DHT22;21755;43.608;1.236;2022-11-25T08:32:58;9.50;99.90
34768;DHT22;21755;43.608;1.236;2022-11-25T08:35:24;9.50;99.90
34768;DHT22;21755;43.608;1.236;2022-11-25T08:37:50;9.60;99.90
34768;DHT22;21755;43.608;1.236;2022-11-25T08:40:16;9.60;99.90
34768;DHT22;21755;43.608;1.236;2022-11-25T08:42:42;9.60;99.90
34768;DHT22;21755;43.608;1.236;2022-11-25T08:45:10;9.70;99.90
34768;DHT22;21755;43.608;1.236;2022-11-25T08:47:36;9.60;99.90
34768;DHT22;21755;43.608;1.236;2022-11-25T08:50:07;9.60;99.90
34768;DHT22;21755;43.608;1.236;2022-11-25T08:52:34;9.60;99.90
34768;DHT22;21755;43.608;1.236;2022-11-25T08:55:00;9.60;99.90
34768;DHT22;21755;43.608;1.236;2022-11-25T08:57:26;9.60;99.90
34768;DHT22;21755;43.608;1.236;2022-11-25T08:59:52;9.60;99.90
34768;DHT22;21755;43.608;1.236;2022-11-25T09:02:17;9.70;99.90
34768;DHT22;21755;43.608;1.236;2022-11-25T09:04:43;9.70;99.90
34768;DHT22;21755;43.608;1.236;2022-11-25T09:07:12;9.70;99.90
34768;DHT22;21755;43.608;1.236;2022-11-25T09:09:38;9.70;99.90
34768;DHT22;21755;43.608;1.236;2022-11-25T09:12:04;9.80;99.90
34768;DHT22;21755;43.608;1.236;2022-11-25T09:14:31;9.80;99.90
34768;DHT22;21755;43.608;1.236;2022-11-25T09:16:57;9.90;99.90
34768;DHT22;21755;43.608;1.236;2022-11-25T09:19:23;9.90;99.90
34768;DHT22;21755;43.608;1.236;2022-11-25T09:21:49;9.90;99.90
34768;DHT22;21755;43.608;1.236;2022-11-25T09:24:15;9.80;99.90
34768;DHT22;21755;43.608;1.236;2022-11-25T09:26:40;9.80;99.90
34768;DHT22;21755;43.608;1.236;2022-11-25T09:29:07;9.80;99.90
34768;DHT22;21755;43.608;1.236;2022-11-25T09:31:35;9.80;99.90
34768;DHT22;21755;43.608;1.236;2022-11-25T09:34:01;9.70;99.90
34768;DHT22;21755;43.608;1.236;2022-11-25T09:36:27;9.80;99.90
34768;DHT22;21755;43.608;1.236;2022-11-25T09:38:53;9.80;99.90
34768;DHT22;21755;43.608;1.236;2022-11-25T09:44:52;9.80;99.90
34768;DHT22;21755;43.608;1.236;2022-11-25T09:53:05;9.80;99.90
34768;DHT22;21755;43.608;1.236;2022-11-25T09:55:41;9.80;99.90
34768;DHT22;21755;43.608;1.236;2022-11-25T10:00:47;9.80;99.90
34768;DHT22;21755;43.608;1.236;2022-11-25T10:08:51;9.80;99.90
34768;DHT22;21755;43.608;1.236;2022-11-25T10:14:17;9.90;99.90
34768;DHT22;21755;43.608;1.236;2022-11-25T10:16:50;9.90;99.90
34768;DHT22;21755;43.608;1.236;2022-11-25T10:21:54;10.00;99.90
34768;DHT22;21755;43.608;1.236;2022-11-25T10:24:20;10.00;99.90
34768;DHT22;21755;43.608;1.236;2022-11-25T10:27:00;9.90;99.90
34768;DHT22;21755;43.608;1.236;2022-11-25T10:29:31;10.00;99.90
34768;DHT22;21755;43.608;1.236;2022-11-25T10:32:21;10.00;99.90
34768;DHT22;21755;43.608;1.236;2022-11-25T10:34:57;10.00;99.90
34768;DHT22;21755;43.608;1.236;2022-11-25T10:37:32;10.00;99.90
34768;DHT22;21755;43.608;1.236;2022-11-25T10:40:00;10.00;99.90
34768;DHT22;21755;43.608;1.236;2022-11-25T10:42:27;10.00;99.90
34768;DHT22;21755;43.608;1.236;2022-11-25T10:44:53;10.00;99.90
34768;DHT22;21755;43.608;1.236;2022-11-25T10:47:54;10.00;99.90
34768;DHT22;21755;43.608;1.236;2022-11-25T10:55:33;10.00;99.90
34768;DHT22;21755;43.608;1.236;2022-11-25T10:58:36;10.10;99.90
34768;DHT22;21755;43.608;1.236;2022-11-25T11:01:19;10.00;99.90
34768;DHT22;21755;43.608;1.236;2022-11-25T11:03:51;10.10;99.90
34768;DHT22;21755;43.608;1.236;2022-11-25T11:06:32;10.10;99.90
34768;DHT22;21755;43.608;1.236;2022-11-25T11:09:00;10.10;99.90
34768;DHT22;21755;43.608;1.236;2022-11-25T11:11:26;10.10;99.90
34768;DHT22;21755;43.608;1.236;2022-11-25T11:14:13;10.10;99.90
34768;DHT22;21755;43.608;1.236;2022-11-25T11:16:43;10.20;99.90
34768;DHT22;21755;43.608;1.236;2022-11-25T11:19:26;10.20;99.90
34768;DHT22;21755;43.608;1.236;2022-11-25T11:21:53;10.20;99.90
34768;DHT22;21755;43.608;1.236;2022-11-25T11:24:32;10.20;99.90
34768;DHT22;21755;43.608;1.236;2022-11-25T11:27:20;10.20;99.90
34768;DHT22;21755;43.608;1.236;2022-11-25T11:29:47;10.10;99.90
34768;DHT22;21755;43.608;1.236;2022-11-25T11:32:31;10.10;99.90
34768;DHT22;21755;43.608;1.236;2022-11-25T11:35:12;10.20;99.90
34768;DHT22;21755;43.608;1.236;2022-11-25T11:37:43;10.10;99.90
34768;DHT22;21755;43.608;1.236;2022-11-25T11:40:30;10.20;99.90
34768;DHT22;21755;43.608;1.236;2022-11-25T11:46:12;10.20;99.90
34768;DHT22;21755;43.608;1.236;2022-11-25T11:48:43;10.30;99.90
34768;DHT22;21755;43.608;1.236;2022-11-25T11:54:10;10.30;99.90
34768;DHT22;21755;43.608;1.236;2022-11-25T11:56:43;10.30;99.90
34768;DHT22;21755;43.608;1.236;2022-11-25T12:10:15;10.20;99.90
34768;DHT22;21755;43.608;1.236;2022-11-25T12:21:06;10.20;99.90
34768;DHT22;21755;43.608;1.236;2022-11-25T12:26:29;10.20;99.90
34768;DHT22;21755;43.608;1.236;2022-11-25T12:29:04;10.20;99.90
34768;DHT22;21755;43.608;1.236;2022-11-25T12:31:42;10.30;99.90
34768;DHT22;21755;43.608;1.236;2022-11-25T12:34:15;10.30;99.90
34768;DHT22;21755;43.608;1.236;2022-11-25T12:36:43;10.30;99.90
34768;DHT22;21755;43.608;1.236;2022-11-25T12:39:31;10.30;99.90
34768;DHT22;21755;43.608;1.236;2022-11-25T12:42:00;10.40;99.90
34768;DHT22;21755;43.608;1.236;2022-11-25T12:47:09;10.50;99.90
34768;DHT22;21755;43.608;1.236;2022-11-25T12:49:44;10.40;99.90
34768;DHT22;21755;43.608;1.236;2022-11-25T12:52:39;10.40;99.90
34768;DHT22;21755;43.608;1.236;2022-11-25T12:55:16;10.40;99.90
34768;DHT22;21755;43.608;1.236;2022-11-25T13:03:46;10.40;99.90
34768;DHT22;21755;43.608;1.236;2022-11-25T13:11:45;10.40;99.90
34768;DHT22;21755;43.608;1.236;2022-11-25T13:16:51;10.40;99.90
34768;DHT22;21755;43.608;1.236;2022-11-25T13:19:18;10.40;99.90
34768;DHT22;21755;43.608;1.236;2022-11-25T13:22:02;10.50;99.90
34768;DHT22;21755;43.608;1.236;2022-11-25T13:24:37;10.50;99.90
34768;DHT22;21755;43.608;1.236;2022-11-25T13:27:03;10.50;99.90
34768;DHT22;21755;43.608;1.236;2022-11-25T13:34:29;10.40;99.90
34768;DHT22;21755;43.608;1.236;2022-11-25T13:36:57;10.40;99.90
34768;DHT22;21755;43.608;1.236;2022-11-25T13:39:36;10.50;99.90
34768;DHT22;21755;43.608;1.236;2022-11-25T13:42:26;10.50;99.90
34768;DHT22;21755;43.608;1.236;2022-11-25T13:44:57;10.70;99.90
34768;DHT22;21755;43.608;1.236;2022-11-25T13:47:37;10.70;99.90
34768;DHT22;21755;43.608;1.236;2022-11-25T13:53:04;10.90;99.90
34768;DHT22;21755;43.608;1.236;2022-11-25T14:22:39;11.40;99.90
34768;DHT22;21755;43.608;1.236;2022-11-25T14:27:44;11.20;99.90
34768;DHT22;21755;43.608;1.236;2022-11-25T14:30:11;11.20;99.90
34768;DHT22;21755;43.608;1.236;2022-11-25T14:32:55;11.20;99.90
34768;DHT22;21755;43.608;1.236;2022-11-25T14:35:36;11.10;99.90
34768;DHT22;21755;43.608;1.236;2022-11-25T14:38:07;11.10;99.90
34768;DHT22;21755;43.608;1.236;2022-11-25T14:40:52;11.00;99.90
34768;DHT22;21755;43.608;1.236;2022-11-25T14:43:22;11.00;99.90
34768;DHT22;21755;43.608;1.236;2022-11-25T14:48:34;10.90;99.90
34768;DHT22;21755;43.608;1.236;2022-11-25T14:51:07;10.80;99.90
34768;DHT22;21755;43.608;1.236;2022-11-25T14:53:43;10.80;99.90
34768;DHT22;21755;43.608;1.236;2022-11-25T14:56:10;10.80;99.90
34768;DHT22;21755;43.608;1.236;2022-11-25T14:58:41;10.70;99.90
34768;DHT22;21755;43.608;1.236;2022-11-25T15:01:25;10.70;99.90
34768;DHT22;21755;43.608;1.236;2022-11-25T15:04:01;10.80;99.90
34768;DHT22;21755;43.608;1.236;2022-11-25T15:06:34;10.80;99.90
34768;DHT22;21755;43.608;1.236;2022-11-25T15:09:01;10.90;99.90
34768;DHT22;21755;43.608;1.236;2022-11-25T15:11:30;11.00;99.90
34768;DHT22;21755;43.608;1.236;2022-11-25T15:14:03;11.00;99.90
34768;DHT22;21755;43.608;1.236;2022-11-25T15:16:40;11.00;99.90
34768;DHT22;21755;43.608;1.236;2022-11-25T15:19:19;11.00;99.90
34768;DHT22;21755;43.608;1.236;2022-11-25T15:21:45;10.90;99.90
34768;DHT22;21755;43.608;1.236;2022-11-25T15:24:28;10.90;99.90
34768;DHT22;21755;43.608;1.236;2022-11-25T15:26:57;10.90;99.90
34768;DHT22;21755;43.608;1.236;2022-11-25T15:29:24;10.80;99.90
34768;DHT22;21755;43.608;1.236;2022-11-25T15:31:51;10.80;99.90
34768;DHT22;21755;43.608;1.236;2022-11-25T15:34:19;10.70;99.90
34768;DHT22;21755;43.608;1.236;2022-11-25T15:36:46;10.70;99.90
34768;DHT22;21755;43.608;1.236;2022-11-25T15:39:23;10.70;99.90
34768;DHT22;21755;43.608;1.236;2022-11-25T15:41:51;10.60;99.90
34768;DHT22;21755;43.608;1.236;2022-11-25T15:46:50;10.60;99.90
34768;DHT22;21755;43.608;1.236;2022-11-25T15:49:18;10.60;99.90
34768;DHT22;21755;43.608;1.236;2022-11-25T15:51:51;10.60;99.90
34768;DHT22;21755;43.608;1.236;2022-11-25T15:54:27;10.50;99.90
34768;DHT22;21755;43.608;1.236;2022-11-25T15:57:09;10.50;99.90
34768;DHT22;21755;43.608;1.236;2022-11-25T16:13:31;10.20;99.90
34768;DHT22;21755;43.608;1.236;2022-11-25T16:18:41;10.20;99.90
34768;DHT22;21755;43.608;1.236;2022-11-25T16:21:23;10.10;99.90
34768;DHT22;21755;43.608;1.236;2022-11-25T16:26:48;10.00;99.90
34768;DHT22;21755;43.608;1.236;2022-11-25T16:29:27;9.90;99.90
34768;DHT22;21755;43.608;1.236;2022-11-25T16:31:54;9.90;99.90
34768;DHT22;21755;43.608;1.236;2022-11-25T16:34:21;9.90;99.90
34768;DHT22;21755;43.608;1.236;2022-11-25T16:36:50;9.80;99.90
34768;DHT22;21755;43.608;1.236;2022-11-25T16:39:16;9.80;99.90
34768;DHT22;21755;43.608;1.236;2022-11-25T16:41:42;9.80;99.90
34768;DHT22;21755;43.608;1.236;2022-11-25T16:44:19;9.80;99.90
34768;DHT22;21755;43.608;1.236;2022-11-25T16:46:47;9.70;99.90
34768;DHT22;21755;43.608;1.236;2022-11-25T16:49:14;9.70;99.90
34768;DHT22;21755;43.608;1.236;2022-11-25T16:51:41;9.70;99.90
34768;DHT22;21755;43.608;1.236;2022-11-25T16:54:07;9.70;99.90
34768;DHT22;21755;43.608;1.236;2022-11-25T16:56:38;9.70;99.90
34768;DHT22;21755;43.608;1.236;2022-11-25T16:59:04;9.70;99.90
34768;DHT22;21755;43.608;1.236;2022-11-25T17:01:32;9.70;99.90
34768;DHT22;21755;43.608;1.236;2022-11-25T17:03:58;9.70;99.90
34768;DHT22;21755;43.608;1.236;2022-11-25T17:06:27;9.60;99.90
34768;DHT22;21755;43.608;1.236;2022-11-25T17:08:53;9.60;99.90
34768;DHT22;21755;43.608;1.236;2022-11-25T17:11:35;9.60;99.90
34768;DHT22;21755;43.608;1.236;2022-11-25T17:14:05;9.60;99.90
34768;DHT22;21755;43.608;1.236;2022-11-25T17:16:35;9.50;99.90
34768;DHT22;21755;43.608;1.236;2022-11-25T17:19:01;9.50;99.90
34768;DHT22;21755;43.608;1.236;2022-11-25T17:21:27;9.50;99.90
34768;DHT22;21755;43.608;1.236;2022-11-25T17:24:14;9.50;99.90
34768;DHT22;21755;43.608;1.236;2022-11-25T17:26:43;9.40;99.90
34768;DHT22;21755;43.608;1.236;2022-11-25T17:29:15;9.40;99.90
34768;DHT22;21755;43.608;1.236;2022-11-25T17:31:42;9.40;99.90
34768;DHT22;21755;43.608;1.236;2022-11-25T17:34:13;9.40;99.90
34768;DHT22;21755;43.608;1.236;2022-11-25T17:36:43;9.50;99.90
34768;DHT22;21755;43.608;1.236;2022-11-25T17:39:11;9.50;99.90
34768;DHT22;21755;43.608;1.236;2022-11-25T17:41:40;9.50;99.90
34768;DHT22;21755;43.608;1.236;2022-11-25T17:44:18;9.60;99.90
34768;DHT22;21755;43.608;1.236;2022-11-25T17:46:46;9.60;99.90
34768;DHT22;21755;43.608;1.236;2022-11-25T17:49:13;9.60;99.90
34768;DHT22;21755;43.608;1.236;2022-11-25T17:51:40;9.60;99.90
34768;DHT22;21755;43.608;1.236;2022-11-25T17:54:06;9.60;99.90
34768;DHT22;21755;43.608;1.236;2022-11-25T17:56:32;9.60;99.90
34768;DHT22;21755;43.608;1.236;2022-11-25T17:59:02;9.70;99.90
34768;DHT22;21755;43.608;1.236;2022-11-25T18:01:29;9.70;99.90
34768;DHT22;21755;43.608;1.236;2022-11-25T18:03:55;9.70;99.90
34768;DHT22;21755;43.608;1.236;2022-11-25T18:06:21;9.70;99.90
34768;DHT22;21755;43.608;1.236;2022-11-25T18:08:48;9.70;99.90
34768;DHT22;21755;43.608;1.236;2022-11-25T18:11:18;9.70;99.90
34768;DHT22;21755;43.608;1.236;2022-11-25T18:13:46;9.70;99.90
34768;DHT22;21755;43.608;1.236;2022-11-25T18:16:13;9.60;99.90
34768;DHT22;21755;43.608;1.236;2022-11-25T18:18:39;9.60;99.90
34768;DHT22;21755;43.608;1.236;2022-11-25T18:21:05;9.60;99.90